THY2GF LTAC-LTFH
Flight info
| Callsign | THY2GF |
|---|---|
| Flight time | 0h 38m |
| Altitude | 27000 |
| Route | ILHAN1B/21R ILHAN W71 ERGUN UW71 HAVZA |
| Aircraft | B738/M-SDE2E3FGHIRWXY/LB1 |
Departure
| Time | 2026-04-23 19:07 |
|---|---|
| Airport | Esenboğa International Airport (LTAC) |
Arrival
| Time | 2026-04-23 19:46 |
|---|---|
| Airport | Samsun-Çarşamba Airport (LTFH) |
| Time | Latitude | Longitude | Altitude | Speed | Heading |
|---|---|---|---|---|---|
| 2026-04-23 18:02 | 40.11346 | 32.98809 | 3123 ft | 0 kts | 127° |
| 2026-04-23 18:49 | 40.11348 | 32.98807 | 3122 ft | 2 kts | 127° |
| 2026-04-23 18:49 | 40.11357 | 32.98791 | 3122 ft | 2 kts | 127° |
| 2026-04-23 18:49 | 40.11366 | 32.98775 | 3122 ft | 2 kts | 127° |
| 2026-04-23 18:50 | 40.11372 | 32.98765 | 3121 ft | 2 kts | 127° |
| 2026-04-23 18:50 | 40.11381 | 32.98743 | 3121 ft | 2 kts | 88° |
| 2026-04-23 18:50 | 40.11376 | 32.98725 | 3121 ft | 2 kts | 47° |
| 2026-04-23 18:50 | 40.11364 | 32.98714 | 3120 ft | 2 kts | 32° |
| 2026-04-23 18:51 | 40.11352 | 32.98702 | 3120 ft | 2 kts | 38° |
| 2026-04-23 18:51 | 40.11341 | 32.98691 | 3120 ft | 1 kts | 36° |
| 2026-04-23 18:51 | 40.11340 | 32.98690 | 3120 ft | 0 kts | 36° |
| 2026-04-23 18:52 | 40.11340 | 32.98691 | 3120 ft | 0 kts | 36° |
| 2026-04-23 18:52 | 40.11341 | 32.98691 | 3120 ft | 0 kts | 36° |
| 2026-04-23 18:52 | 40.11342 | 32.98692 | 3120 ft | 0 kts | 36° |
| 2026-04-23 18:52 | 40.11343 | 32.98693 | 3120 ft | 0 kts | 36° |
| 2026-04-23 18:53 | 40.11343 | 32.98694 | 3120 ft | 0 kts | 36° |
| 2026-04-23 18:53 | 40.11344 | 32.98694 | 3120 ft | 0 kts | 36° |
| 2026-04-23 18:53 | 40.11345 | 32.98695 | 3120 ft | 0 kts | 36° |
| 2026-04-23 18:53 | 40.11346 | 32.98696 | 3120 ft | 0 kts | 36° |
| 2026-04-23 18:54 | 40.11347 | 32.98697 | 3120 ft | 0 kts | 36° |
| 2026-04-23 18:54 | 40.11348 | 32.98698 | 3120 ft | 0 kts | 36° |
| 2026-04-23 18:54 | 40.11350 | 32.98700 | 3120 ft | 0 kts | 36° |
| 2026-04-23 18:55 | 40.11388 | 32.98735 | 3121 ft | 13 kts | 36° |
| 2026-04-23 18:55 | 40.11496 | 32.98836 | 3123 ft | 22 kts | 37° |
| 2026-04-23 18:55 | 40.11599 | 32.98943 | 3125 ft | 11 kts | 18° |
| 2026-04-23 18:55 | 40.11658 | 32.98889 | 3124 ft | 9 kts | 324° |
| 2026-04-23 18:56 | 40.11712 | 32.98910 | 3124 ft | 9 kts | 34° |
| 2026-04-23 18:56 | 40.11766 | 32.98962 | 3125 ft | 11 kts | 37° |
| 2026-04-23 18:56 | 40.11854 | 32.99048 | 3127 ft | 19 kts | 35° |
| 2026-04-23 18:56 | 40.11984 | 32.99171 | 3129 ft | 26 kts | 36° |
| 2026-04-23 18:57 | 40.12157 | 32.99337 | 3130 ft | 33 kts | 37° |
| 2026-04-23 18:57 | 40.12336 | 32.99506 | 3133 ft | 29 kts | 35° |
| 2026-04-23 18:57 | 40.12486 | 32.99652 | 3136 ft | 25 kts | 36° |
| 2026-04-23 18:57 | 40.12613 | 32.99770 | 3136 ft | 19 kts | 36° |
| 2026-04-23 18:58 | 40.12716 | 32.99868 | 3136 ft | 17 kts | 36° |
| 2026-04-23 18:58 | 40.12809 | 32.99955 | 3135 ft | 15 kts | 36° |
| 2026-04-23 18:58 | 40.12889 | 33.00033 | 3137 ft | 12 kts | 37° |
| 2026-04-23 18:58 | 40.12957 | 33.00099 | 3140 ft | 11 kts | 37° |
| 2026-04-23 18:59 | 40.13027 | 33.00166 | 3142 ft | 14 kts | 36° |
| 2026-04-23 18:59 | 40.13123 | 33.00258 | 3140 ft | 20 kts | 36° |
| 2026-04-23 18:59 | 40.13258 | 33.00385 | 3140 ft | 26 kts | 35° |
| 2026-04-23 18:59 | 40.13414 | 33.00535 | 3139 ft | 28 kts | 36° |
| 2026-04-23 19:00 | 40.13540 | 33.00656 | 3139 ft | 16 kts | 37° |
| 2026-04-23 19:00 | 40.13628 | 33.00740 | 3139 ft | 15 kts | 36° |
| 2026-04-23 19:00 | 40.13717 | 33.00825 | 3139 ft | 15 kts | 36° |
| 2026-04-23 19:00 | 40.13792 | 33.00897 | 3141 ft | 12 kts | 37° |
| 2026-04-23 19:01 | 40.13866 | 33.00970 | 3142 ft | 15 kts | 36° |
| 2026-04-23 19:01 | 40.13952 | 33.01050 | 3141 ft | 14 kts | 34° |
| 2026-04-23 19:01 | 40.14035 | 33.01075 | 3141 ft | 11 kts | 345° |
| 2026-04-23 19:01 | 40.14075 | 33.01041 | 3140 ft | 0 kts | 312° |
| 2026-04-23 19:04 | 40.14077 | 33.01040 | 3140 ft | 1 kts | 312° |
| 2026-04-23 19:04 | 40.14104 | 33.00972 | 3139 ft | 15 kts | 282° |
| 2026-04-23 19:04 | 40.14156 | 33.00845 | 3136 ft | 16 kts | 307° |
| 2026-04-23 19:04 | 40.14221 | 33.00724 | 3134 ft | 13 kts | 292° |
| 2026-04-23 19:05 | 40.14202 | 33.00677 | 3133 ft | 0 kts | 218° |
| 2026-04-23 19:05 | 40.14199 | 33.00674 | 3133 ft | 0 kts | 218° |
| 2026-04-23 19:05 | 40.14194 | 33.00670 | 3133 ft | 0 kts | 218° |
| 2026-04-23 19:05 | 40.14189 | 33.00664 | 3133 ft | 0 kts | 218° |
| 2026-04-23 19:06 | 40.14166 | 33.00641 | 3132 ft | 19 kts | 218° |
| 2026-04-23 19:07 | 40.13839 | 33.00329 | 3133 ft | 96 kts | 214° |
| 2026-04-23 19:07 | 40.13106 | 32.99627 | 3125 ft | 161 kts | 217° |
| 2026-04-23 19:07 | 40.12157 | 32.98707 | 3691 ft | 176 kts | 217° |
| 2026-04-23 19:07 | 40.11164 | 32.97762 | 4420 ft | 184 kts | 216° |
| 2026-04-23 19:08 | 40.10067 | 32.96757 | 4956 ft | 203 kts | 217° |
| 2026-04-23 19:08 | 40.08882 | 32.95636 | 5499 ft | 222 kts | 217° |
| 2026-04-23 19:08 | 40.07548 | 32.94375 | 6007 ft | 245 kts | 217° |
| 2026-04-23 19:08 | 40.06187 | 32.93092 | 7005 ft | 247 kts | 218° |
| 2026-04-23 19:09 | 40.04800 | 32.91782 | 7918 ft | 251 kts | 218° |
| 2026-04-23 19:09 | 40.03387 | 32.90447 | 8863 ft | 254 kts | 218° |
| 2026-04-23 19:09 | 40.01898 | 32.89184 | 9762 ft | 260 kts | 207° |
| 2026-04-23 19:09 | 40.00133 | 32.88781 | 10567 ft | 274 kts | 178° |
| 2026-04-23 19:10 | 39.98261 | 32.89656 | 10985 ft | 305 kts | 149° |
| 2026-04-23 19:10 | 39.96539 | 32.91428 | 11440 ft | 326 kts | 144° |
| 2026-04-23 19:10 | 39.94664 | 32.93270 | 11598 ft | 353 kts | 148° |
| 2026-04-23 19:10 | 39.92621 | 32.95118 | 12290 ft | 362 kts | 149° |
| 2026-04-23 19:11 | 39.90424 | 32.96816 | 12890 ft | 368 kts | 161° |
| 2026-04-23 19:11 | 39.88025 | 32.97705 | 13734 ft | 358 kts | 181° |
| 2026-04-23 19:11 | 39.85563 | 32.97611 | 14663 ft | 350 kts | 191° |
| 2026-04-23 19:11 | 39.83125 | 32.97359 | 14938 ft | 357 kts | 190° |
| 2026-04-23 19:12 | 39.80633 | 32.97354 | 14965 ft | 359 kts | 179° |
| 2026-04-23 19:12 | 39.78140 | 32.97998 | 15187 ft | 376 kts | 172° |
| 2026-04-23 19:12 | 39.75683 | 32.99104 | 16097 ft | 381 kts | 163° |
| 2026-04-23 19:12 | 39.73431 | 33.00960 | 16910 ft | 397 kts | 146° |
| 2026-04-23 19:13 | 39.71437 | 33.03505 | 17793 ft | 400 kts | 140° |
| 2026-04-23 19:13 | 39.69754 | 33.06444 | 18505 ft | 414 kts | 125° |
| 2026-04-23 19:13 | 39.68834 | 33.10068 | 19099 ft | 434 kts | 102° |
| 2026-04-23 19:13 | 39.68941 | 33.14039 | 19725 ft | 446 kts | 82° |
| 2026-04-23 19:14 | 39.69663 | 33.17992 | 20257 ft | 454 kts | 73° |
| 2026-04-23 19:14 | 39.70977 | 33.21748 | 20755 ft | 460 kts | 57° |
| 2026-04-23 19:14 | 39.72834 | 33.25080 | 21361 ft | 462 kts | 50° |
| 2026-04-23 19:14 | 39.74842 | 33.28409 | 21825 ft | 467 kts | 50° |
| 2026-04-23 19:15 | 39.76824 | 33.31782 | 22243 ft | 474 kts | 51° |
| 2026-04-23 19:15 | 39.78810 | 33.35208 | 22693 ft | 479 kts | 51° |
| 2026-04-23 19:15 | 39.80828 | 33.38678 | 23155 ft | 483 kts | 51° |
| 2026-04-23 19:15 | 39.82861 | 33.42165 | 23464 ft | 491 kts | 51° |
| 2026-04-23 19:16 | 39.84917 | 33.45693 | 23569 ft | 490 kts | 51° |
| 2026-04-23 19:16 | 39.86989 | 33.49253 | 23697 ft | 488 kts | 51° |
| 2026-04-23 19:16 | 39.89025 | 33.52735 | 23823 ft | 488 kts | 50° |
| 2026-04-23 19:17 | 39.93286 | 33.59687 | 23964 ft | 491 kts | 49° |
| 2026-04-23 19:17 | 39.95408 | 33.63223 | 24018 ft | 496 kts | 51° |
| 2026-04-23 19:17 | 39.97434 | 33.66847 | 24641 ft | 494 kts | 53° |
| 2026-04-23 19:17 | 39.99426 | 33.70448 | 24937 ft | 500 kts | 52° |
| 2026-04-23 19:18 | 40.01485 | 33.74125 | 24963 ft | 499 kts | 52° |
| 2026-04-23 19:18 | 40.03524 | 33.77746 | 24967 ft | 494 kts | 51° |
| 2026-04-23 19:18 | 40.05548 | 33.81342 | 24969 ft | 490 kts | 51° |
| 2026-04-23 19:18 | 40.07578 | 33.84950 | 24968 ft | 491 kts | 51° |
| 2026-04-23 19:19 | 40.11626 | 33.92157 | 24968 ft | 492 kts | 51° |
| 2026-04-23 19:19 | 40.13643 | 33.95753 | 24967 ft | 492 kts | 51° |
| 2026-04-23 19:20 | 40.17689 | 34.02974 | 24967 ft | 492 kts | 51° |
| 2026-04-23 19:20 | 40.19737 | 34.06635 | 24967 ft | 492 kts | 51° |
| 2026-04-23 19:20 | 40.21737 | 34.10213 | 24967 ft | 492 kts | 51° |
| 2026-04-23 19:20 | 40.23779 | 34.13871 | 24967 ft | 492 kts | 51° |
| 2026-04-23 19:21 | 40.25800 | 34.17494 | 24966 ft | 492 kts | 51° |
| 2026-04-23 19:21 | 40.29871 | 34.24802 | 24990 ft | 504 kts | 51° |
| 2026-04-23 19:21 | 40.31934 | 34.28515 | 25613 ft | 501 kts | 51° |
| 2026-04-23 19:22 | 40.34007 | 34.32253 | 25943 ft | 507 kts | 51° |
| 2026-04-23 19:22 | 40.36067 | 34.35969 | 26472 ft | 506 kts | 51° |
| 2026-04-23 19:22 | 40.40226 | 34.43483 | 26957 ft | 510 kts | 51° |
| 2026-04-23 19:23 | 40.42280 | 34.47201 | 26966 ft | 509 kts | 51° |
| 2026-04-23 19:23 | 40.44354 | 34.50961 | 26967 ft | 506 kts | 51° |
| 2026-04-23 19:23 | 40.46421 | 34.54713 | 26968 ft | 504 kts | 51° |
| 2026-04-23 19:24 | 40.50526 | 34.62173 | 26968 ft | 504 kts | 51° |
| 2026-04-23 19:24 | 40.52584 | 34.65921 | 26966 ft | 505 kts | 52° |
| 2026-04-23 19:24 | 40.56709 | 34.73444 | 26967 ft | 505 kts | 52° |
| 2026-04-23 19:25 | 40.60812 | 34.80947 | 26967 ft | 505 kts | 52° |
| 2026-04-23 19:25 | 40.64919 | 34.88475 | 26967 ft | 506 kts | 52° |
| 2026-04-23 19:26 | 40.69025 | 34.96019 | 26967 ft | 506 kts | 52° |
| 2026-04-23 19:26 | 40.71084 | 34.99810 | 26967 ft | 506 kts | 52° |
| 2026-04-23 19:27 | 40.75182 | 35.07368 | 26967 ft | 506 kts | 52° |
| 2026-04-23 19:27 | 40.81398 | 35.18813 | 26967 ft | 516 kts | 52° |
| 2026-04-23 19:28 | 40.85535 | 35.26489 | 26967 ft | 514 kts | 52° |
| 2026-04-23 19:28 | 40.89679 | 35.34237 | 26967 ft | 512 kts | 52° |
| 2026-04-23 19:29 | 40.91742 | 35.38082 | 26967 ft | 513 kts | 52° |
| 2026-04-23 19:29 | 40.95420 | 35.46172 | 26965 ft | 516 kts | 64° |
| 2026-04-23 19:30 | 40.98130 | 35.55020 | 26970 ft | 520 kts | 69° |
| 2026-04-23 19:30 | 40.99412 | 35.59451 | 26406 ft | 518 kts | 69° |
| 2026-04-23 19:30 | 41.02013 | 35.68351 | 24555 ft | 517 kts | 70° |
| 2026-04-23 19:31 | 41.03307 | 35.72786 | 23828 ft | 512 kts | 69° |
| 2026-04-23 19:31 | 41.04606 | 35.77163 | 23082 ft | 507 kts | 69° |
| 2026-04-23 19:31 | 41.05897 | 35.81496 | 22336 ft | 502 kts | 69° |
| 2026-04-23 19:31 | 41.07146 | 35.85717 | 21603 ft | 497 kts | 70° |
| 2026-04-23 19:32 | 41.08401 | 35.89985 | 20857 ft | 493 kts | 70° |
| 2026-04-23 19:32 | 41.09638 | 35.94220 | 20083 ft | 489 kts | 71° |
| 2026-04-23 19:32 | 41.10805 | 35.98411 | 19326 ft | 484 kts | 72° |
| 2026-04-23 19:32 | 41.11927 | 36.02588 | 18607 ft | 478 kts | 72° |
| 2026-04-23 19:33 | 41.13044 | 36.06739 | 17882 ft | 473 kts | 72° |
| 2026-04-23 19:33 | 41.14135 | 36.10777 | 17156 ft | 468 kts | 71° |
| 2026-04-23 19:33 | 41.16312 | 36.18835 | 15684 ft | 456 kts | 70° |
| 2026-04-23 19:34 | 41.17371 | 36.22761 | 14970 ft | 448 kts | 70° |
| 2026-04-23 19:34 | 41.18395 | 36.26562 | 14261 ft | 433 kts | 70° |
| 2026-04-23 19:34 | 41.20361 | 36.33875 | 12906 ft | 405 kts | 69° |
| 2026-04-23 19:35 | 41.21287 | 36.37326 | 12252 ft | 393 kts | 69° |
| 2026-04-23 19:35 | 41.22186 | 36.40680 | 11626 ft | 384 kts | 69° |
| 2026-04-23 19:35 | 41.23080 | 36.44019 | 10985 ft | 379 kts | 69° |
| 2026-04-23 19:35 | 41.23951 | 36.47279 | 10615 ft | 366 kts | 69° |
| 2026-04-23 19:36 | 41.24792 | 36.50430 | 10445 ft | 349 kts | 69° |
| 2026-04-23 19:36 | 41.25581 | 36.53390 | 10294 ft | 333 kts | 69° |
| 2026-04-23 19:36 | 41.26344 | 36.56256 | 10029 ft | 324 kts | 68° |
| 2026-04-23 19:36 | 41.27093 | 36.59069 | 9630 ft | 320 kts | 68° |
| 2026-04-23 19:37 | 41.27831 | 36.61845 | 9222 ft | 317 kts | 68° |
| 2026-04-23 19:37 | 41.28563 | 36.64602 | 8818 ft | 313 kts | 68° |
| 2026-04-23 19:37 | 41.29279 | 36.67335 | 8418 ft | 308 kts | 72° |
| 2026-04-23 19:37 | 41.29546 | 36.70115 | 8037 ft | 305 kts | 96° |
| 2026-04-23 19:38 | 41.28857 | 36.72813 | 7526 ft | 302 kts | 125° |
| 2026-04-23 19:38 | 41.27575 | 36.75063 | 7093 ft | 299 kts | 129° |
| 2026-04-23 19:38 | 41.26348 | 36.77336 | 6686 ft | 296 kts | 126° |
| 2026-04-23 19:38 | 41.25143 | 36.79587 | 6296 ft | 293 kts | 127° |
| 2026-04-23 19:39 | 41.23938 | 36.81789 | 5916 ft | 289 kts | 127° |
| 2026-04-23 19:39 | 41.22706 | 36.83917 | 5514 ft | 286 kts | 134° |
| 2026-04-23 19:39 | 41.21096 | 36.85364 | 5189 ft | 279 kts | 161° |
| 2026-04-23 19:39 | 41.19215 | 36.85688 | 4929 ft | 269 kts | 186° |
| 2026-04-23 19:40 | 41.17439 | 36.85040 | 4675 ft | 259 kts | 209° |
| 2026-04-23 19:40 | 41.16013 | 36.83637 | 4436 ft | 247 kts | 222° |
| 2026-04-23 19:40 | 41.14750 | 36.82185 | 4191 ft | 236 kts | 221° |
| 2026-04-23 19:40 | 41.13520 | 36.80784 | 3969 ft | 226 kts | 225° |
| 2026-04-23 19:41 | 41.12669 | 36.79143 | 3721 ft | 209 kts | 252° |
| 2026-04-23 19:41 | 41.12519 | 36.77309 | 3457 ft | 195 kts | 276° |
| 2026-04-23 19:41 | 41.12904 | 36.75647 | 3221 ft | 183 kts | 300° |
| 2026-04-23 19:41 | 41.13634 | 36.74284 | 3021 ft | 182 kts | 306° |
| 2026-04-23 19:42 | 41.14402 | 36.72876 | 2812 ft | 187 kts | 304° |
| 2026-04-23 19:42 | 41.15164 | 36.71504 | 2640 ft | 185 kts | 308° |
| 2026-04-23 19:42 | 41.15998 | 36.70167 | 2427 ft | 187 kts | 310° |
| 2026-04-23 19:42 | 41.16856 | 36.68877 | 2183 ft | 187 kts | 311° |
| 2026-04-23 19:43 | 41.17734 | 36.67601 | 1950 ft | 178 kts | 312° |
| 2026-04-23 19:43 | 41.18531 | 36.66455 | 1700 ft | 165 kts | 312° |
| 2026-04-23 19:43 | 41.19301 | 36.65361 | 1528 ft | 157 kts | 313° |
| 2026-04-23 19:43 | 41.20035 | 36.64320 | 1291 ft | 152 kts | 312° |
| 2026-04-23 19:44 | 41.20760 | 36.63299 | 1089 ft | 151 kts | 313° |
| 2026-04-23 19:44 | 41.21492 | 36.62298 | 872 ft | 150 kts | 313° |
| 2026-04-23 19:44 | 41.22214 | 36.61301 | 689 ft | 149 kts | 313° |
| 2026-04-23 19:44 | 41.22935 | 36.60288 | 504 ft | 151 kts | 313° |
| 2026-04-23 19:45 | 41.23645 | 36.59272 | 317 ft | 152 kts | 311° |
| 2026-04-23 19:45 | 41.24356 | 36.58247 | 140 ft | 148 kts | 313° |
| 2026-04-23 19:45 | 41.25044 | 36.57291 | 29 ft | 130 kts | 313° |
| 2026-04-23 19:45 | 41.25522 | 36.56620 | 27 ft | 71 kts | 314° |
| 2026-04-23 19:46 | 41.25816 | 36.56206 | 27 ft | 56 kts | 314° |
| 2026-04-23 19:46 | 41.26011 | 36.55938 | 27 ft | 15 kts | 313° |
| 2026-04-23 19:46 | 41.26001 | 36.55835 | 27 ft | 11 kts | 223° |
| 2026-04-23 19:46 | 41.25944 | 36.55766 | 27 ft | 10 kts | 222° |
| 2026-04-23 19:47 | 41.25889 | 36.55700 | 27 ft | 11 kts | 225° |
| 2026-04-23 19:47 | 41.25900 | 36.55612 | 27 ft | 12 kts | 315° |
| 2026-04-23 19:47 | 41.25890 | 36.55558 | 27 ft | 7 kts | 221° |
| 2026-04-23 19:47 | 41.25858 | 36.55518 | 27 ft | 0 kts | 223° |